Sacramento, California
Traffic Map
Current Weather Conditions
Sacramento, California
Clear
Clear
11°
Feels Like: 11°
Wind Chill: 11° Ceiling: Unl
Heat Index: 11° Visibility: 10mi
Dew Point: Wind: 5mph
Humidity: 80% Direction: 230° (SW)
Pressure: 30.06in Gusts: 0mph
Raw Report DataKSAC 290953Z 23004KT 10SM CLR 11/07 A3006 RMK AO2 SLP177 T01060072
Traffic Incident Summary
Active as of:
Severity:
Category:
InformationThere was an issue retrieving the traffic information for this location. Please try a different location or try again shortly.
Advertisements
Track Severe Weather on mobile